F/V Jeremi Simon — FHAF — position and weather

sailwx.info

Track history (hours):
 
Tides and Currents Weather Stations Pressure Air Temp Water Temp Dewpoint Dewpoint Depression Visibility Wind Speed Wind Dir Waves Ship Positions

F/V Jeremi Simon

Last reported at 2014-Oct-30 12:05 UTC. Time now 2014-Oct-30 13:53 UTC.
Position N 46°17' W 002°20'.

Length 20 m.

Type: Other ship. MMSI: 227415000.

Date/timePositionNaut miles runAvg speedWind from/ knotsBaromVisibWave heightAir tempDewpointWater temp
2014-Oct-30 12:05N 46°17' W 002°20'5 5.6
2014-Oct-30 11:11N 46°17' W 002°28'2 2.8
2014-Oct-30 10:26N 46°16' W 002°30'8 8.8
2014-Oct-30 09:32N 46°14' W 002°19'10 8.9
2014-Oct-30 08:28N 46°12' W 002°06'6 6.9
2014-Oct-30 07:33N 46°09' W 001°58'3 3.4
2014-Oct-30 06:34N 46°11' W 002°01'8 3.8
2014-Oct-30 04:20N 46°18' W 002°09'3 3.3
2014-Oct-30 03:33N 46°20' W 002°11'23 7.4
2014-Oct-30 00:28N 46°22' W 002°44'5 1.3
2014-Oct-29 20:16N 46°27' W 002°45'3 3.5
2014-Oct-29 19:18N 46°24' W 002°43'4 5.6
2014-Oct-29 18:33N 46°25' W 002°37'9 8.5
2014-Oct-29 17:33N 46°29' W 002°26'10 9.8
2014-Oct-29 16:33N 46°34' W 002°14'10 9.7
2014-Oct-29 15:33N 46°39' W 002°02'5 0.5
2014-Oct-29 05:22N 46°42' W 001°56'0 0.1
2014-Oct-29 04:34N 46°42' W 001°56'5 5.4
2014-Oct-29 03:34N 46°42' W 002°04'11 8.7
2014-Oct-29 02:16N 46°45' W 002°20'9 9.1
2014-Oct-29 01:14N 46°45' W 002°34'7 8.5
2014-Oct-29 00:22N 46°45' W 002°44'7 8.5
2014-Oct-28 23:34N 46°45' W 002°55'9 8.1
2014-Oct-28 22:30N 46°45' W 003°07'7 6.8
2014-Oct-28 21:30N 46°38' W 003°05'10 9.1
2014-Oct-28 20:25N 46°32' W 002°54'8 8.8
2014-Oct-28 19:34N 46°27' W 002°45'12 8.1
2014-Oct-28 18:03N 46°19' W 002°32'3 1.6
2014-Oct-28 16:14N 46°20' W 002°36'9 0.9
2014-Oct-28 06:04N 46°22' W 002°23'0 0.5
2014-Oct-28 05:26N 46°21' W 002°23'1 0.6
2014-Oct-28 04:17N 46°21' W 002°22'1 0.7
2014-Oct-28 03:18N 46°20' W 002°22'1 0.7
2014-Oct-28 02:20N 46°19' W 002°22'2 2.1
2014-Oct-28 01:33N 46°20' W 002°24'9 8.4
2014-Oct-28 00:30N 46°26' W 002°33'24 8.3
2014-Oct-27 21:34N 46°43' W 002°58'30 3.3
2014-Oct-27 12:18N 47°10' W 003°20'7 9.6
2014-Oct-27 11:33N 47°13' W 003°10'1110.1
2014-Oct-27 10:25N 47°16' W 002°54'910.4
2014-Oct-27 09:34N 47°19' W 002°41'7 5.1
2014-Oct-27 08:08N 47°21' W 002°31'0 0.0
2014-Oct-27 07:33N 47°21' W 002°31'1 1.2
2014-Oct-27 06:34N 47°20' W 002°32'10 9.8
2014-Oct-27 05:33N 47°18' W 002°47'1210.0
2014-Oct-27 04:23N 47°16' W 003°03'16 4.8
2014-Oct-27 01:09N 47°12' W 003°26'53 1.9
2014-Oct-25 21:08N 46°45' W 002°19'610.0
2014-Oct-25 20:34N 46°43' W 002°11'9 9.4
2014-Oct-25 19:33N 46°41' W 001°57'0 0.0
2014-Oct-24 00:05N 46°41' W 001°58'2 4.3
2014-Oct-23 23:33N 46°42' W 002°01'1 0.7
2014-Oct-23 22:31N 46°41' W 002°01'1 0.6
2014-Oct-23 21:33N 46°40' W 002°01'3 3.3
2014-Oct-23 20:33N 46°39' W 002°05'7 7.3
2014-Oct-23 19:33N 46°36' W 002°15'  
Track history (hours):
 
Tides and Currents Weather Stations Pressure Air Temp Water Temp Dewpoint Dewpoint Depression Visibility Wind Speed Wind Dir Waves Ship Positions

F/V Jeremi Simon

Last reported at 2014-Oct-30 12:05 UTC. Time now 2014-Oct-30 13:53 UTC.
Position N 46°17' W 002°20'.

Length 20 m.

Type: Other ship. MMSI: 227415000.

Date/timePositionNaut miles runAvg speedWind from/ knotsBaromVisibWave heightAir tempDewpointWater temp
2014-Oct-30 12:05N 46°17' W 002°20'5 5.6
2014-Oct-30 11:11N 46°17' W 002°28'2 2.8
2014-Oct-30 10:26N 46°16' W 002°30'8 8.8
2014-Oct-30 09:32N 46°14' W 002°19'10 8.9
2014-Oct-30 08:28N 46°12' W 002°06'6 6.9
2014-Oct-30 07:33N 46°09' W 001°58'3 3.4
2014-Oct-30 06:34N 46°11' W 002°01'8 3.8
2014-Oct-30 04:20N 46°18' W 002°09'3 3.3
2014-Oct-30 03:33N 46°20' W 002°11'23 7.4
2014-Oct-30 00:28N 46°22' W 002°44'5 1.3
2014-Oct-29 20:16N 46°27' W 002°45'3 3.5
2014-Oct-29 19:18N 46°24' W 002°43'4 5.6
2014-Oct-29 18:33N 46°25' W 002°37'9 8.5
2014-Oct-29 17:33N 46°29' W 002°26'10 9.8
2014-Oct-29 16:33N 46°34' W 002°14'10 9.7
2014-Oct-29 15:33N 46°39' W 002°02'5 0.5
2014-Oct-29 05:22N 46°42' W 001°56'0 0.1
2014-Oct-29 04:34N 46°42' W 001°56'5 5.4
2014-Oct-29 03:34N 46°42' W 002°04'11 8.7
2014-Oct-29 02:16N 46°45' W 002°20'9 9.1
2014-Oct-29 01:14N 46°45' W 002°34'7 8.5
2014-Oct-29 00:22N 46°45' W 002°44'7 8.5
2014-Oct-28 23:34N 46°45' W 002°55'9 8.1
2014-Oct-28 22:30N 46°45' W 003°07'7 6.8
2014-Oct-28 21:30N 46°38' W 003°05'10 9.1
2014-Oct-28 20:25N 46°32' W 002°54'8 8.8
2014-Oct-28 19:34N 46°27' W 002°45'12 8.1
2014-Oct-28 18:03N 46°19' W 002°32'3 1.6
2014-Oct-28 16:14N 46°20' W 002°36'9 0.9
2014-Oct-28 06:04N 46°22' W 002°23'0 0.5
2014-Oct-28 05:26N 46°21' W 002°23'1 0.6
2014-Oct-28 04:17N 46°21' W 002°22'1 0.7
2014-Oct-28 03:18N 46°20' W 002°22'1 0.7
2014-Oct-28 02:20N 46°19' W 002°22'2 2.1
2014-Oct-28 01:33N 46°20' W 002°24'9 8.4
2014-Oct-28 00:30N 46°26' W 002°33'24 8.3
2014-Oct-27 21:34N 46°43' W 002°58'30 3.3
2014-Oct-27 12:18N 47°10' W 003°20'7 9.6
2014-Oct-27 11:33N 47°13' W 003°10'1110.1
2014-Oct-27 10:25N 47°16' W 002°54'910.4
2014-Oct-27 09:34N 47°19' W 002°41'7 5.1
2014-Oct-27 08:08N 47°21' W 002°31'0 0.0
2014-Oct-27 07:33N 47°21' W 002°31'1 1.2
2014-Oct-27 06:34N 47°20' W 002°32'10 9.8
2014-Oct-27 05:33N 47°18' W 002°47'1210.0
2014-Oct-27 04:23N 47°16' W 003°03'16 4.8
2014-Oct-27 01:09N 47°12' W 003°26'53 1.9
2014-Oct-25 21:08N 46°45' W 002°19'610.0
2014-Oct-25 20:34N 46°43' W 002°11'9 9.4
2014-Oct-25 19:33N 46°41' W 001°57'0 0.0
2014-Oct-24 00:05N 46°41' W 001°58'2 4.3
2014-Oct-23 23:33N 46°42' W 002°01'1 0.7
2014-Oct-23 22:31N 46°41' W 002°01'1 0.6
2014-Oct-23 21:33N 46°40' W 002°01'3 3.3
2014-Oct-23 20:33N 46°39' W 002°05'7 7.3
2014-Oct-23 19:33N 46°36' W 002°15'  

Dump ship's entire track history